Quinsam — VY6800 — position and weather

sailwx.info

Track history (hours):
 
Tides and Currents Weather Stations Pressure Air Temp Water Temp Dewpoint Dewpoint Depression Visibility Wind Speed Wind Dir Waves Ship Positions

Quinsam

Last reported at 2017-Aug-19 16:30 UTC. Time now 2017-Aug-19 16:44 UTC.
Position N 49°10' W 123°56'.

Length 88 m; draft 1.5 m.

Type: Ship. MMSI: 316001266.

Date/timePositionNaut miles runAvg speedWind from/ knotsBaromVisibWave heightAir tempDewpointWater temp
2017-Aug-19 16:30N 49°10' W 123°56'1 2.3
2017-Aug-19 16:00N 49°10' W 123°54'2 3.3
2017-Aug-19 15:30N 49°11' W 123°52'3 5.8
2017-Aug-19 15:00N 49°10' W 123°56'1 0.8
2017-Aug-19 14:00N 49°10' W 123°55'0 1.0
2017-Aug-19 13:30N 49°10' W 123°55'3 5.1
2017-Aug-19 13:00N 49°11' W 123°52'0 0.0
2017-Aug-19 12:29N 49°11' W 123°52'0 0.0
2017-Aug-19 11:02N 49°11' W 123°52'0 0.0
2017-Aug-19 10:50N 49°11' W 123°52'0 0.0
2017-Aug-19 10:26N 49°11' W 123°52'0 0.0
2017-Aug-19 09:50N 49°11' W 123°52'0 0.0
2017-Aug-19 09:26N 49°11' W 123°52'0 0.0
2017-Aug-19 08:05N 49°11' W 123°52'0 0.0
2017-Aug-19 07:50N 49°11' W 123°52'0 0.0
2017-Aug-19 07:23N 49°11' W 123°52'0 0.0
2017-Aug-19 06:53N 49°11' W 123°52'0 0.0
2017-Aug-19 06:21N 49°11' W 123°52'3 8.0
2017-Aug-19 06:00N 49°10' W 123°56'3 5.0
2017-Aug-19 05:29N 49°11' W 123°52'3 5.7
2017-Aug-19 05:01N 49°10' W 123°56'3 5.6
2017-Aug-19 04:29N 49°11' W 123°52'3 6.0
2017-Aug-19 04:00N 49°10' W 123°56'3 5.8
2017-Aug-19 03:30N 49°11' W 123°52'3 5.8
2017-Aug-19 03:00N 49°10' W 123°56'3 5.8
2017-Aug-19 02:30N 49°11' W 123°52'3 5.8
2017-Aug-19 02:00N 49°10' W 123°56'3 5.7
2017-Aug-19 01:30N 49°11' W 123°52'3 5.9
2017-Aug-19 01:00N 49°10' W 123°56'1 1.7
2017-Aug-19 00:30N 49°10' W 123°55'2 4.0
2017-Aug-18 23:59N 49°11' W 123°52'3 6.0
2017-Aug-18 23:30N 49°10' W 123°56'2 3.9
2017-Aug-18 23:00N 49°11' W 123°53'1 1.9
2017-Aug-18 22:30N 49°11' W 123°52'3 5.8
2017-Aug-18 22:00N 49°10' W 123°56'3 5.5
2017-Aug-18 21:30N 49°11' W 123°52'0 0.7
2017-Aug-18 20:59N 49°11' W 123°52'2 5.2
2017-Aug-18 20:30N 49°10' W 123°56'3 4.1
2017-Aug-18 19:48N 49°11' W 123°52'2 6.2
2017-Aug-18 19:30N 49°10' W 123°54'1 2.2
2017-Aug-18 19:00N 49°10' W 123°56'3 4.7
2017-Aug-18 18:24N 49°11' W 123°52'3 7.5
2017-Aug-18 18:00N 49°10' W 123°56'1 1.3
2017-Aug-18 17:31N 49°10' W 123°55'2 4.0
2017-Aug-18 16:57N 49°11' W 123°52'3 6.6
2017-Aug-18 16:30N 49°10' W 123°56'2 3.6
2017-Aug-18 16:00N 49°10' W 123°53'1 1.5
2017-Aug-18 15:30N 49°11' W 123°52'3 5.2
2017-Aug-18 15:00N 49°10' W 123°56'1 0.7
2017-Aug-18 14:00N 49°10' W 123°55'0 0.3
2017-Aug-18 13:31N 49°10' W 123°55'2 4.3
2017-Aug-18 12:59N 49°11' W 123°52'0 0.0
2017-Aug-18 11:56N 49°11' W 123°52'0 0.0
2017-Aug-18 11:26N 49°11' W 123°52'0 0.0
2017-Aug-18 06:32N 49°11' W 123°52'0 0.0
2017-Aug-18 06:22N 49°11' W 123°52'3 7.9
2017-Aug-18 06:00N 49°10' W 123°56'3 5.4
2017-Aug-18 05:30N 49°11' W 123°52'3 5.2
2017-Aug-18 05:00N 49°10' W 123°56'3 5.2
2017-Aug-18 04:29N 49°11' W 123°52'3 5.7
2017-Aug-18 04:00N 49°10' W 123°56'3 5.6
2017-Aug-18 03:29N 49°11' W 123°52'3 6.0
2017-Aug-18 03:00N 49°10' W 123°56'3 5.8
2017-Aug-18 02:30N 49°11' W 123°52'3 5.8
2017-Aug-18 02:00N 49°10' W 123°56'2 4.4
2017-Aug-18 01:31N 49°11' W 123°53'1 1.4
2017-Aug-18 01:00N 49°10' W 123°54'2 3.0
2017-Aug-18 00:30N 49°10' W 123°56'3 5.6
2017-Aug-17 23:59N 49°11' W 123°52'3 6.1
2017-Aug-17 23:31N 49°10' W 123°56'1 2.1
2017-Aug-17 23:00N 49°10' W 123°54'2 3.4
2017-Aug-17 22:28N 49°11' W 123°52'3 6.3
2017-Aug-17 22:00N 49°10' W 123°56'2 3.9
2017-Aug-17 21:31N 49°11' W 123°53'1 1.9
2017-Aug-17 21:00N 49°11' W 123°52'3 5.8
2017-Aug-17 20:31N 49°10' W 123°56'3 5.4
2017-Aug-17 20:00N 49°11' W 123°52'1 1.1
2017-Aug-17 19:30N 49°11' W 123°53'2 4.4
2017-Aug-17 19:00N 49°10' W 123°56'3 4.0
2017-Aug-17 18:17N 49°11' W 123°52'2 8.0
2017-Aug-17 18:00N 49°10' W 123°55'0 0.6
2017-Aug-17 17:30N 49°10' W 123°55'2 4.4
2017-Aug-17 16:57N 49°11' W 123°52'3 6.6
2017-Aug-17 16:30N 49°10' W 123°56'2 4.5
2017-Aug-17 16:01N 49°11' W 123°53'0 0.7
2017-Aug-17 15:30N 49°11' W 123°52'3 5.2
2017-Aug-17 15:00N 49°10' W 123°56'3 5.9
2017-Aug-17 14:30N 49°11' W 123°52'2 4.5
2017-Aug-17 14:00N 49°10' W 123°55'0 0.4
2017-Aug-17 13:30N 49°10' W 123°55'2 2.4
2017-Aug-17 12:38N 49°11' W 123°52'0 0.0
2017-Aug-17 12:26N 49°11' W 123°52'0 0.0
2017-Aug-17 11:56N 49°11' W 123°52'0 0.0
2017-Aug-17 11:26N 49°11' W 123°52'0 0.0
2017-Aug-17 08:50N 49°11' W 123°52'0 0.0
2017-Aug-17 07:08N 49°11' W 123°52'0 0.0
2017-Aug-17 06:56N 49°11' W 123°52'0 0.0
2017-Aug-17 06:23N 49°11' W 123°52'3 7.6
2017-Aug-17 06:00N 49°10' W 123°56'0 0.2
2017-Aug-17 05:30N 49°10' W 123°56'0 0.0
2017-Aug-17 05:00N 49°10' W 123°56'3 5.2
2017-Aug-17 04:30N 49°11' W 123°52'2 4.9
2017-Aug-17 04:00N 49°10' W 123°56'2 3.4
2017-Aug-17 03:31N 49°10' W 123°53'1 2.1
2017-Aug-17 03:00N 49°11' W 123°52'3 5.8
2017-Aug-17 02:30N 49°10' W 123°56'3 5.1
2017-Aug-17 01:57N 49°11' W 123°52'3 6.0
2017-Aug-17 01:30N 49°10' W 123°55'2 4.3
2017-Aug-17 01:00N 49°11' W 123°52'0 0.9
2017-Aug-17 00:29N 49°11' W 123°52'3 5.9
2017-Aug-17 00:00N 49°10' W 123°56'3 5.8
2017-Aug-16 23:30N 49°11' W 123°52'1 2.8
2017-Aug-16 23:00N 49°10' W 123°54'2 3.1
2017-Aug-16 22:30N 49°10' W 123°56'3 5.7
2017-Aug-16 22:00N 49°11' W 123°52'3 6.0
2017-Aug-16 21:30N 49°10' W 123°56'2 3.2
2017-Aug-16 21:00N 49°10' W 123°53'1 1.1
2017-Aug-16 20:29N 49°11' W 123°53'2 4.6
2017-Aug-16 20:00N 49°10' W 123°56'3 5.7
2017-Aug-16 19:30N 49°11' W 123°52'3 5.9
2017-Aug-16 19:00N 49°10' W 123°56'1 1.9
2017-Aug-16 18:30N 49°10' W 123°54'2 3.7
2017-Aug-16 17:59N 49°11' W 123°52'3 5.9
2017-Aug-16 17:30N 49°10' W 123°56'3 4.1
2017-Aug-16 16:48N 49°11' W 123°52'2 8.3
2017-Aug-16 16:31N 49°10' W 123°55'1 1.6
2017-Aug-16 16:00N 49°10' W 123°54'2 3.2
2017-Aug-16 15:30N 49°11' W 123°52'3 5.8
2017-Aug-16 15:00N 49°10' W 123°56'3 4.8
2017-Aug-16 14:24N 49°11' W 123°52'2 5.3
2017-Aug-16 14:00N 49°10' W 123°55'0 0.3
2017-Aug-16 13:31N 49°10' W 123°55'2 4.4
2017-Aug-16 13:00N 49°11' W 123°52'0 0.0
2017-Aug-16 11:23N 49°11' W 123°52'0 0.0
2017-Aug-16 10:59N 49°11' W 123°52'0 0.0
2017-Aug-16 10:29N 49°11' W 123°52'0 0.0
2017-Aug-16 09:47N 49°11' W 123°52'0 0.0
2017-Aug-16 09:29N 49°11' W 123°52'0 0.0
2017-Aug-16 08:53N 49°11' W 123°52'0 0.0
2017-Aug-16 08:29N 49°11' W 123°52'0 0.0
2017-Aug-16 06:17N 49°11' W 123°52'3 9.7
2017-Aug-16 06:01N 49°10' W 123°56'3 5.3
2017-Aug-16 05:30N 49°11' W 123°52'3 5.0
2017-Aug-16 04:57N 49°10' W 123°56'3 6.1
2017-Aug-16 04:28N 49°11' W 123°52'3 6.3
2017-Aug-16 04:00N 49°10' W 123°56'2 4.5
2017-Aug-16 03:30N 49°11' W 123°53'1 1.1
2017-Aug-16 02:57N 49°11' W 123°52'2 4.3
2017-Aug-16 02:30N 49°10' W 123°54'1 1.4
2017-Aug-16 02:00N 49°10' W 123°53'1 2.1
2017-Aug-16 01:28N 49°11' W 123°52'3 6.2
2017-Aug-16 01:00N 49°10' W 123°56'3 5.8
2017-Aug-16 00:30N 49°11' W 123°52'3 5.7
2017-Aug-16 00:00N 49°10' W 123°56'1 2.2
2017-Aug-15 23:31N 49°10' W 123°54'1 2.8
2017-Aug-15 23:00N 49°11' W 123°52'3 5.3
2017-Aug-15 22:30N 49°10' W 123°56'3 5.7
2017-Aug-15 22:00N 49°11' W 123°52'3 5.9
2017-Aug-15 21:30N 49°10' W 123°56'1 2.2
2017-Aug-15 21:01N 49°10' W 123°54'2 3.5
2017-Aug-15 20:30N 49°11' W 123°52'3 5.5
2017-Aug-15 20:00N 49°10' W 123°56'3 5.9
2017-Aug-15 19:30N 49°11' W 123°52'3 5.6
2017-Aug-15 19:00N 49°10' W 123°56'1 2.6
2017-Aug-15 18:30N 49°10' W 123°54'1 3.0
2017-Aug-15 18:01N 49°11' W 123°52'3 5.5
2017-Aug-15 17:29N 49°10' W 123°56'3 5.8
2017-Aug-15 16:59N 49°11' W 123°52'2 4.7
2017-Aug-15 16:30N 49°10' W 123°55'0 0.4
2017-Aug-15 16:00N 49°10' W 123°55'2 4.1
2017-Aug-15 15:30N 49°11' W 123°52'3 5.9
2017-Aug-15 15:00N 49°10' W 123°56'3 4.0
2017-Aug-15 14:17N 49°11' W 123°52'2 7.9
2017-Aug-15 14:00N 49°10' W 123°55'0 0.8
2017-Aug-15 13:30N 49°10' W 123°54'2 0.5
2017-Aug-15 09:59N 49°11' W 123°52'0 0.0
2017-Aug-15 09:23N 49°11' W 123°52'0 0.0
2017-Aug-15 08:59N 49°11' W 123°52'0 0.0
2017-Aug-15 08:23N 49°11' W 123°52'0 0.0
2017-Aug-15 07:05N 49°11' W 123°52'0 0.0
2017-Aug-15 06:47N 49°11' W 123°52'0 0.0
2017-Aug-15 06:29N 49°11' W 123°52'3 6.0
2017-Aug-15 06:00N 49°10' W 123°56'3 5.6
2017-Aug-15 05:30N 49°11' W 123°52'3 5.9
2017-Aug-15 05:00N 49°10' W 123°56'3 5.8
2017-Aug-15 04:30N 49°11' W 123°52'3 5.8
2017-Aug-15 04:00N 49°10' W 123°56'3 5.4
2017-Aug-15 03:30N 49°11' W 123°52'0 0.2
2017-Aug-15 02:47N 49°11' W 123°52'1 2.2
2017-Aug-15 02:30N 49°11' W 123°53'2 4.2
2017-Aug-15 02:00N 49°10' W 123°56'3 5.1
2017-Aug-15 01:30N 49°11' W 123°52'3 5.7
2017-Aug-15 01:00N 49°10' W 123°56'3 5.7
2017-Aug-15 00:30N 49°11' W 123°52'3 5.8
2017-Aug-15 00:00N 49°10' W 123°56'2 3.1
2017-Aug-14 23:30N 49°10' W 123°53'1 1.4
2017-Aug-14 23:00N 49°11' W 123°53'2 4.5
2017-Aug-14 22:30N 49°10' W 123°56'3 5.1
2017-Aug-14 21:56N 49°11' W 123°52'2 5.1
2017-Aug-14 21:30N 49°10' W 123°55'0 0.4
2017-Aug-14 21:00N 49°10' W 123°54'2 3.8
2017-Aug-14 20:29N 49°11' W 123°52'3 6.1
2017-Aug-14 20:00N 49°10' W 123°56'3 3.9
2017-Aug-14 19:16N 49°11' W 123°52'2 8.9
2017-Aug-14 19:00N 49°10' W 123°55'0 0.7
2017-Aug-14 18:30N 49°10' W 123°54'2 3.6
2017-Aug-14 17:58N 49°11' W 123°52'3 6.2
2017-Aug-14 17:30N 49°10' W 123°56'3 4.0
2017-Aug-14 16:47N 49°11' W 123°52'2 7.7
2017-Aug-14 16:30N 49°10' W 123°55'0 0.1
2017-Aug-14 16:00N 49°10' W 123°55'2 3.9
2017-Aug-14 15:28N 49°11' W 123°52'3 6.2
2017-Aug-14 15:00N 49°10' W 123°56'3 4.9
2017-Aug-14 14:24N 49°11' W 123°52'3 6.4
2017-Aug-14 14:00N 49°10' W 123°55'0 0.3
2017-Aug-14 13:30N 49°10' W 123°55'3 3.8
2017-Aug-14 12:49N 49°11' W 123°52'0 0.0
2017-Aug-14 12:28N 49°11' W 123°52'0 0.0
2017-Aug-14 11:58N 49°11' W 123°52'0 0.0
2017-Aug-14 11:22N 49°11' W 123°52'0 0.0
2017-Aug-14 10:58N 49°11' W 123°52'0 0.0
2017-Aug-14 10:28N 49°11' W 123°52'0 0.0
2017-Aug-14 09:58N 49°11' W 123°52'0 0.0
2017-Aug-14 08:40N 49°11' W 123°52'0 0.0
2017-Aug-14 06:21N 49°11' W 123°52'3 8.4
2017-Aug-14 06:01N 49°10' W 123°56'3 5.7
2017-Aug-14 05:30N 49°11' W 123°52'3 5.9
2017-Aug-14 05:01N 49°10' W 123°56'3 5.3
2017-Aug-14 04:28N 49°11' W 123°52'3 6.4
2017-Aug-14 04:00N 49°10' W 123°56'3 5.6
2017-Aug-14 03:31N 49°11' W 123°52'0 0.2
2017-Aug-14 02:58N 49°11' W 123°52'1 1.6
2017-Aug-14 02:30N 49°11' W 123°53'2 4.3
2017-Aug-14 02:01N 49°10' W 123°56'3 5.6
2017-Aug-14 01:30N 49°11' W 123°52'3 5.3
2017-Aug-14 00:58N 49°10' W 123°56'3 6.2
2017-Aug-14 00:30N 49°11' W 123°52'3 6.0
2017-Aug-14 00:01N 49°10' W 123°56'2 4.8
2017-Aug-13 23:30N 49°11' W 123°52'0 0.1
2017-Aug-13 23:00N 49°11' W 123°52'2 4.8
2017-Aug-13 22:30N 49°10' W 123°56'3 4.2
2017-Aug-13 21:49N 49°11' W 123°52'2 6.4
2017-Aug-13 21:30N 49°10' W 123°54'0 0.3
2017-Aug-13 21:01N 49°10' W 123°55'2 4.1
2017-Aug-13 20:30N 49°11' W 123°52'3 5.7
2017-Aug-13 20:00N 49°10' W 123°56'3 5.3
2017-Aug-13 19:27N 49°11' W 123°52'3 5.8
2017-Aug-13 19:00N 49°10' W 123°55'1 2.1
2017-Aug-13 18:31N 49°10' W 123°54'1 2.6
2017-Aug-13 18:01N 49°11' W 123°52'3 5.4
2017-Aug-13 17:30N 49°10' W 123°56'3 5.7
2017-Aug-13 17:00N 49°11' W 123°52'2 5.0
2017-Aug-13 16:31N 49°10' W 123°55'1 2.4
2017-Aug-13 16:00N 49°10' W 123°53'1 1.4
2017-Aug-13 15:30N 49°11' W 123°52'2 4.7
2017-Aug-13 15:01N 49°10' W 123°56'0 0.0
2017-Aug-13 14:31N 49°10' W 123°56'0 0.0
2017-Aug-13 14:01N 49°10' W 123°56'1 1.6
2017-Aug-13 13:31N 49°10' W 123°55'2 4.1
2017-Aug-13 13:00N 49°11' W 123°52'0 0.0
2017-Aug-13 12:29N 49°11' W 123°52'0 0.0
2017-Aug-13 11:20N 49°11' W 123°52'0 0.0
2017-Aug-13 10:47N 49°11' W 123°52'0 0.0
2017-Aug-13 10:14N 49°11' W 123°52'0 0.0
2017-Aug-13 09:20N 49°11' W 123°52'0 0.0
2017-Aug-13 08:38N 49°11' W 123°52'0 0.0
2017-Aug-13 08:26N 49°11' W 123°52'0 0.0
2017-Aug-13 07:56N 49°11' W 123°52'0 0.0
2017-Aug-13 07:26N 49°11' W 123°52'0 0.0
2017-Aug-13 06:23N 49°11' W 123°52'3 7.3
2017-Aug-13 06:00N 49°10' W 123°56'3 5.1
2017-Aug-13 05:29N 49°11' W 123°52'3 5.7
2017-Aug-13 05:00N 49°10' W 123°56'3 5.2
2017-Aug-13 04:30N 49°11' W 123°52'3 5.8
2017-Aug-13 04:00N 49°10' W 123°56'2 4.9
2017-Aug-13 03:30N 49°11' W 123°52'0 0.8
2017-Aug-13 02:57N 49°11' W 123°52'0 0.8
2017-Aug-13 02:29N 49°11' W 123°52'3 5.3
2017-Aug-13 02:00N 49°10' W 123°56'3 5.4
2017-Aug-13 01:29N 49°11' W 123°52'3 6.0
2017-Aug-13 01:00N 49°10' W 123°56'3 4.2
2017-Aug-13 00:19N 49°11' W 123°52'3 9.3
2017-Aug-13 00:00N 49°10' W 123°56'1 2.4
2017-Aug-12 23:30N 49°10' W 123°54'1 2.0
2017-Aug-12 23:00N 49°11' W 123°53'2 4.5
2017-Aug-12 22:30N 49°10' W 123°56'3 5.4
2017-Aug-12 21:58N 49°11' W 123°52'2 4.5
2017-Aug-12 21:31N 49°10' W 123°55'0 0.3
2017-Aug-12 21:00N 49°10' W 123°54'2 3.6
2017-Aug-12 20:30N 49°11' W 123°52'3 5.6
2017-Aug-12 20:00N 49°10' W 123°56'3 5.6
2017-Aug-12 19:30N 49°11' W 123°52'2 4.9
2017-Aug-12 19:00N 49°10' W 123°55'1 1.3
2017-Aug-12 18:30N 49°10' W 123°54'1 2.5
2017-Aug-12 18:01N 49°11' W 123°52'2 4.8
2017-Aug-12 17:30N 49°10' W 123°56'3 4.5
2017-Aug-12 16:51N 49°11' W 123°52'2 6.7
2017-Aug-12 16:30N 49°10' W 123°55'1 1.5
2017-Aug-12 16:00N 49°10' W 123°54'1 1.9
2017-Aug-12 15:30N 49°11' W 123°53'2 4.5
2017-Aug-12 15:00N 49°10' W 123°56'3 5.8
2017-Aug-12 14:30N 49°11' W 123°52'2 4.7
2017-Aug-12 14:00N 49°10' W 123°55'0 0.9
2017-Aug-12 13:30N 49°10' W 123°56'3 0.5
2017-Aug-12 07:23N 49°11' W 123°52'0 0.0
2017-Aug-12 06:53N 49°11' W 123°52'0 0.0
2017-Aug-12 06:29N 49°11' W 123°52'3 5.7
2017-Aug-12 06:00N 49°10' W 123°56'3 5.3
2017-Aug-12 05:30N 49°11' W 123°52'3 5.3
2017-Aug-12 04:59N 49°10' W 123°56'3 4.7
2017-Aug-12 04:21N 49°11' W 123°52'3 8.3
2017-Aug-12 04:00N 49°10' W 123°56'3 5.8
2017-Aug-12 03:30N 49°11' W 123°52'0 0.0
2017-Aug-12 03:00N 49°11' W 123°52'2 3.3
2017-Aug-12 02:30N 49°10' W 123°54'0 0.6
2017-Aug-12 02:00N 49°10' W 123°54'1 2.1
2017-Aug-12 01:30N 49°11' W 123°53'2 4.0
2017-Aug-12 01:00N 49°10' W 123°56'3 4.9
2017-Aug-12 00:25N 49°11' W 123°52'3 7.1
2017-Aug-12 00:00N 49°10' W 123°56'2 3.2
2017-Aug-11 23:30N 49°11' W 123°54'1 1.9
2017-Aug-11 23:00N 49°11' W 123°52'3 4.1
2017-Aug-11 22:23N 49°10' W 123°56'3 6.9
2017-Aug-11 21:57N 49°11' W 123°52'2 5.0
2017-Aug-11 21:30N 49°10' W 123°55'0 0.5
2017-Aug-11 21:01N 49°10' W 123°54'2 3.7
2017-Aug-11 20:29N 49°11' W 123°52'3 4.8
2017-Aug-11 19:54N 49°10' W 123°56'3 5.0
2017-Aug-11 19:19N 49°11' W 123°52'2 7.5
2017-Aug-11 19:00N 49°10' W 123°55'1 1.2
2017-Aug-11 18:30N 49°10' W 123°54'2 3.4
2017-Aug-11 18:00N 49°11' W 123°52'3 5.7
2017-Aug-11 17:30N 49°10' W 123°56'3 4.9
2017-Aug-11 16:55N 49°11' W 123°52'2 5.4
2017-Aug-11 16:30N 49°10' W 123°55'0 0.7
2017-Aug-11 16:00N 49°10' W 123°54'2 3.7
2017-Aug-11 15:30N 49°11' W 123°52'3 5.8
2017-Aug-11 15:00N 49°10' W 123°56'0 0.4
2017-Aug-11 14:00N 49°10' W 123°55'1 1.5
2017-Aug-11 13:30N 49°10' W 123°54'2 0.3
2017-Aug-11 06:43N 49°11' W 123°52'0 0.0
2017-Aug-11 06:28N 49°11' W 123°52'3 5.9
2017-Aug-11 06:00N 49°10' W 123°56'3 5.0
2017-Aug-11 05:29N 49°11' W 123°52'3 5.4
2017-Aug-11 05:00N 49°10' W 123°56'2 4.9
2017-Aug-11 04:30N 49°11' W 123°52'3 5.1
2017-Aug-11 04:01N 49°10' W 123°56'2 4.0
2017-Aug-11 03:30N 49°11' W 123°53'1 1.3
2017-Aug-11 02:55N 49°11' W 123°52'2 5.3
2017-Aug-11 02:30N 49°10' W 123°55'2 3.4
2017-Aug-11 02:00N 49°11' W 123°52'2 3.7
2017-Aug-11 01:31N 49°10' W 123°55'0 0.1
2017-Aug-11 01:00N 49°10' W 123°55'2 4.1
2017-Aug-11 00:30N 49°11' W 123°52'3 5.6
2017-Aug-11 00:00N 49°10' W 123°56'3 4.1
2017-Aug-10 23:18N 49°11' W 123°52'3 8.6
2017-Aug-10 23:00N 49°10' W 123°55'0 0.7
2017-Aug-10 22:30N 49°10' W 123°55'2 4.4
2017-Aug-10 22:00N 49°11' W 123°52'3 5.8
2017-Aug-10 21:30N 49°10' W 123°56'3 5.7
2017-Aug-10 21:00N 49°11' W 123°52'2 3.4
2017-Aug-10 20:30N 49°10' W 123°54'1 2.4
2017-Aug-10 20:00N 49°10' W 123°56'3 5.7
2017-Aug-10 19:30N 49°11' W 123°52'3 5.9
2017-Aug-10 19:00N 49°10' W 123°56'1 2.2
2017-Aug-10 18:30N 49°10' W 123°54'2 3.4
2017-Aug-10 18:00N 49°11' W 123°52'3 5.8
2017-Aug-10 17:30N 49°10' W 123°56'3 5.8
2017-Aug-10 17:00N 49°11' W 123°52'2 4.0
2017-Aug-10 16:31N 49°10' W 123°54'0 0.1
2017-Aug-10 16:00N 49°10' W 123°54'2 3.7
2017-Aug-10 15:30N 49°11' W 123°52'3 5.8
2017-Aug-10 15:00N 49°10' W 123°56'3 5.8
2017-Aug-10 14:30N 49°11' W 123°52'3 5.3
2017-Aug-10 14:01N 49°10' W 123°55'1 1.7
2017-Aug-10 13:30N 49°10' W 123°54'2 3.6
2017-Aug-10 13:00N 49°11' W 123°52'0 0.0
2017-Aug-10 12:30N 49°11' W 123°52'0 0.0
2017-Aug-10 12:00N 49°11' W 123°52'0 0.0
2017-Aug-10 11:30N 49°11' W 123°52'0 0.0
2017-Aug-10 11:00N 49°11' W 123°52'0 0.0
2017-Aug-10 10:30N 49°11' W 123°52'0 0.0
2017-Aug-10 10:00N 49°11' W 123°52'0 0.0
2017-Aug-10 09:30N 49°11' W 123°52'0 0.0
2017-Aug-10 09:00N 49°11' W 123°52'0 0.0
2017-Aug-10 08:30N 49°11' W 123°52'0 0.0
2017-Aug-10 08:00N 49°11' W 123°52'0 0.0
2017-Aug-10 07:30N 49°11' W 123°52'0 0.0
2017-Aug-10 07:00N 49°11' W 123°52'0 0.0
2017-Aug-10 06:30N 49°11' W 123°52'3 5.9
2017-Aug-10 06:00N 49°10' W 123°56'0 0.0
2017-Aug-10 05:30N 49°10' W 123°56'0 0.0
2017-Aug-10 05:00N 49°10' W 123°56'3 5.8
2017-Aug-10 04:30N 49°11' W 123°52'3 5.9
2017-Aug-10 04:01N 49°10' W 123°56'2 4.0
2017-Aug-10 03:30N 49°11' W 123°53'0 0.4
2017-Aug-10 03:00N 49°11' W 123°53'2 3.8
2017-Aug-10 02:30N 49°10' W 123°55'2 4.9
2017-Aug-10 02:00N 49°11' W 123°52'3 5.6
2017-Aug-10 01:31N 49°10' W 123°56'3 5.8
2017-Aug-10 01:00N 49°11' W 123°52'2 1.1
2017-Aug-09 23:28N 49°10' W 123°54'1 0.4
2017-Aug-09 22:02N 49°10' W 123°55'1 1.9
2017-Aug-09 21:43N 49°10' W 123°56'1 2.8
2017-Aug-09 21:27N 49°10' W 123°55'0 0.3
2017-Aug-09 20:04N 49°10' W 123°55'0 8.7
2017-Aug-09 20:00N 49°10' W 123°55'1 1.7
2017-Aug-09 19:19N 49°11' W 123°53'  
Track history (hours):
 
Tides and Currents Weather Stations Pressure Air Temp Water Temp Dewpoint Dewpoint Depression Visibility Wind Speed Wind Dir Waves Ship Positions

Quinsam

Last reported at 2017-Aug-19 16:30 UTC. Time now 2017-Aug-19 16:44 UTC.
Position N 49°10' W 123°56'.

Length 88 m; draft 1.5 m.

Type: Ship. MMSI: 316001266.

Date/timePositionNaut miles runAvg speedWind from/ knotsBaromVisibWave heightAir tempDewpointWater temp
2017-Aug-19 16:30N 49°10' W 123°56'1 2.3
2017-Aug-19 16:00N 49°10' W 123°54'2 3.3
2017-Aug-19 15:30N 49°11' W 123°52'3 5.8
2017-Aug-19 15:00N 49°10' W 123°56'1 0.8
2017-Aug-19 14:00N 49°10' W 123°55'0 1.0
2017-Aug-19 13:30N 49°10' W 123°55'3 5.1
2017-Aug-19 13:00N 49°11' W 123°52'0 0.0
2017-Aug-19 12:29N 49°11' W 123°52'0 0.0
2017-Aug-19 11:02N 49°11' W 123°52'0 0.0
2017-Aug-19 10:50N 49°11' W 123°52'0 0.0
2017-Aug-19 10:26N 49°11' W 123°52'0 0.0
2017-Aug-19 09:50N 49°11' W 123°52'0 0.0
2017-Aug-19 09:26N 49°11' W 123°52'0 0.0
2017-Aug-19 08:05N 49°11' W 123°52'0 0.0
2017-Aug-19 07:50N 49°11' W 123°52'0 0.0
2017-Aug-19 07:23N 49°11' W 123°52'0 0.0
2017-Aug-19 06:53N 49°11' W 123°52'0 0.0
2017-Aug-19 06:21N 49°11' W 123°52'3 8.0
2017-Aug-19 06:00N 49°10' W 123°56'3 5.0
2017-Aug-19 05:29N 49°11' W 123°52'3 5.7
2017-Aug-19 05:01N 49°10' W 123°56'3 5.6
2017-Aug-19 04:29N 49°11' W 123°52'3 6.0
2017-Aug-19 04:00N 49°10' W 123°56'3 5.8
2017-Aug-19 03:30N 49°11' W 123°52'3 5.8
2017-Aug-19 03:00N 49°10' W 123°56'3 5.8
2017-Aug-19 02:30N 49°11' W 123°52'3 5.8
2017-Aug-19 02:00N 49°10' W 123°56'3 5.7
2017-Aug-19 01:30N 49°11' W 123°52'3 5.9
2017-Aug-19 01:00N 49°10' W 123°56'1 1.7
2017-Aug-19 00:30N 49°10' W 123°55'2 4.0
2017-Aug-18 23:59N 49°11' W 123°52'3 6.0
2017-Aug-18 23:30N 49°10' W 123°56'2 3.9
2017-Aug-18 23:00N 49°11' W 123°53'1 1.9
2017-Aug-18 22:30N 49°11' W 123°52'3 5.8
2017-Aug-18 22:00N 49°10' W 123°56'3 5.5
2017-Aug-18 21:30N 49°11' W 123°52'0 0.7
2017-Aug-18 20:59N 49°11' W 123°52'2 5.2
2017-Aug-18 20:30N 49°10' W 123°56'3 4.1
2017-Aug-18 19:48N 49°11' W 123°52'2 6.2
2017-Aug-18 19:30N 49°10' W 123°54'1 2.2
2017-Aug-18 19:00N 49°10' W 123°56'3 4.7
2017-Aug-18 18:24N 49°11' W 123°52'3 7.5
2017-Aug-18 18:00N 49°10' W 123°56'1 1.3
2017-Aug-18 17:31N 49°10' W 123°55'2 4.0
2017-Aug-18 16:57N 49°11' W 123°52'3 6.6
2017-Aug-18 16:30N 49°10' W 123°56'2 3.6
2017-Aug-18 16:00N 49°10' W 123°53'1 1.5
2017-Aug-18 15:30N 49°11' W 123°52'3 5.2
2017-Aug-18 15:00N 49°10' W 123°56'1 0.7
2017-Aug-18 14:00N 49°10' W 123°55'0 0.3
2017-Aug-18 13:31N 49°10' W 123°55'2 4.3
2017-Aug-18 12:59N 49°11' W 123°52'0 0.0
2017-Aug-18 11:56N 49°11' W 123°52'0 0.0
2017-Aug-18 11:26N 49°11' W 123°52'0 0.0
2017-Aug-18 06:32N 49°11' W 123°52'0 0.0
2017-Aug-18 06:22N 49°11' W 123°52'3 7.9
2017-Aug-18 06:00N 49°10' W 123°56'3 5.4
2017-Aug-18 05:30N 49°11' W 123°52'3 5.2
2017-Aug-18 05:00N 49°10' W 123°56'3 5.2
2017-Aug-18 04:29N 49°11' W 123°52'3 5.7
2017-Aug-18 04:00N 49°10' W 123°56'3 5.6
2017-Aug-18 03:29N 49°11' W 123°52'3 6.0
2017-Aug-18 03:00N 49°10' W 123°56'3 5.8
2017-Aug-18 02:30N 49°11' W 123°52'3 5.8
2017-Aug-18 02:00N 49°10' W 123°56'2 4.4
2017-Aug-18 01:31N 49°11' W 123°53'1 1.4
2017-Aug-18 01:00N 49°10' W 123°54'2 3.0
2017-Aug-18 00:30N 49°10' W 123°56'3 5.6
2017-Aug-17 23:59N 49°11' W 123°52'3 6.1
2017-Aug-17 23:31N 49°10' W 123°56'1 2.1
2017-Aug-17 23:00N 49°10' W 123°54'2 3.4
2017-Aug-17 22:28N 49°11' W 123°52'3 6.3
2017-Aug-17 22:00N 49°10' W 123°56'2 3.9
2017-Aug-17 21:31N 49°11' W 123°53'1 1.9
2017-Aug-17 21:00N 49°11' W 123°52'3 5.8
2017-Aug-17 20:31N 49°10' W 123°56'3 5.4
2017-Aug-17 20:00N 49°11' W 123°52'1 1.1
2017-Aug-17 19:30N 49°11' W 123°53'2 4.4
2017-Aug-17 19:00N 49°10' W 123°56'3 4.0
2017-Aug-17 18:17N 49°11' W 123°52'2 8.0
2017-Aug-17 18:00N 49°10' W 123°55'0 0.6
2017-Aug-17 17:30N 49°10' W 123°55'2 4.4
2017-Aug-17 16:57N 49°11' W 123°52'3 6.6
2017-Aug-17 16:30N 49°10' W 123°56'2 4.5
2017-Aug-17 16:01N 49°11' W 123°53'0 0.7
2017-Aug-17 15:30N 49°11' W 123°52'3 5.2
2017-Aug-17 15:00N 49°10' W 123°56'3 5.9
2017-Aug-17 14:30N 49°11' W 123°52'2 4.5
2017-Aug-17 14:00N 49°10' W 123°55'0 0.4
2017-Aug-17 13:30N 49°10' W 123°55'2 2.4
2017-Aug-17 12:38N 49°11' W 123°52'0 0.0
2017-Aug-17 12:26N 49°11' W 123°52'0 0.0
2017-Aug-17 11:56N 49°11' W 123°52'0 0.0
2017-Aug-17 11:26N 49°11' W 123°52'0 0.0
2017-Aug-17 08:50N 49°11' W 123°52'0 0.0
2017-Aug-17 07:08N 49°11' W 123°52'0 0.0
2017-Aug-17 06:56N 49°11' W 123°52'0 0.0
2017-Aug-17 06:23N 49°11' W 123°52'3 7.6
2017-Aug-17 06:00N 49°10' W 123°56'0 0.2
2017-Aug-17 05:30N 49°10' W 123°56'0 0.0
2017-Aug-17 05:00N 49°10' W 123°56'3 5.2
2017-Aug-17 04:30N 49°11' W 123°52'2 4.9
2017-Aug-17 04:00N 49°10' W 123°56'2 3.4
2017-Aug-17 03:31N 49°10' W 123°53'1 2.1
2017-Aug-17 03:00N 49°11' W 123°52'3 5.8
2017-Aug-17 02:30N 49°10' W 123°56'3 5.1
2017-Aug-17 01:57N 49°11' W 123°52'3 6.0
2017-Aug-17 01:30N 49°10' W 123°55'2 4.3
2017-Aug-17 01:00N 49°11' W 123°52'0 0.9
2017-Aug-17 00:29N 49°11' W 123°52'3 5.9
2017-Aug-17 00:00N 49°10' W 123°56'3 5.8
2017-Aug-16 23:30N 49°11' W 123°52'1 2.8
2017-Aug-16 23:00N 49°10' W 123°54'2 3.1
2017-Aug-16 22:30N 49°10' W 123°56'3 5.7
2017-Aug-16 22:00N 49°11' W 123°52'3 6.0
2017-Aug-16 21:30N 49°10' W 123°56'2 3.2
2017-Aug-16 21:00N 49°10' W 123°53'1 1.1
2017-Aug-16 20:29N 49°11' W 123°53'2 4.6
2017-Aug-16 20:00N 49°10' W 123°56'3 5.7
2017-Aug-16 19:30N 49°11' W 123°52'3 5.9
2017-Aug-16 19:00N 49°10' W 123°56'1 1.9
2017-Aug-16 18:30N 49°10' W 123°54'2 3.7
2017-Aug-16 17:59N 49°11' W 123°52'3 5.9
2017-Aug-16 17:30N 49°10' W 123°56'3 4.1
2017-Aug-16 16:48N 49°11' W 123°52'2 8.3
2017-Aug-16 16:31N 49°10' W 123°55'1 1.6
2017-Aug-16 16:00N 49°10' W 123°54'2 3.2
2017-Aug-16 15:30N 49°11' W 123°52'3 5.8
2017-Aug-16 15:00N 49°10' W 123°56'3 4.8
2017-Aug-16 14:24N 49°11' W 123°52'2 5.3
2017-Aug-16 14:00N 49°10' W 123°55'0 0.3
2017-Aug-16 13:31N 49°10' W 123°55'2 4.4
2017-Aug-16 13:00N 49°11' W 123°52'0 0.0
2017-Aug-16 11:23N 49°11' W 123°52'0 0.0
2017-Aug-16 10:59N 49°11' W 123°52'0 0.0
2017-Aug-16 10:29N 49°11' W 123°52'0 0.0
2017-Aug-16 09:47N 49°11' W 123°52'0 0.0
2017-Aug-16 09:29N 49°11' W 123°52'0 0.0
2017-Aug-16 08:53N 49°11' W 123°52'0 0.0
2017-Aug-16 08:29N 49°11' W 123°52'0 0.0
2017-Aug-16 06:17N 49°11' W 123°52'3 9.7
2017-Aug-16 06:01N 49°10' W 123°56'3 5.3
2017-Aug-16 05:30N 49°11' W 123°52'3 5.0
2017-Aug-16 04:57N 49°10' W 123°56'3 6.1
2017-Aug-16 04:28N 49°11' W 123°52'3 6.3
2017-Aug-16 04:00N 49°10' W 123°56'2 4.5
2017-Aug-16 03:30N 49°11' W 123°53'1 1.1
2017-Aug-16 02:57N 49°11' W 123°52'2 4.3
2017-Aug-16 02:30N 49°10' W 123°54'1 1.4
2017-Aug-16 02:00N 49°10' W 123°53'1 2.1
2017-Aug-16 01:28N 49°11' W 123°52'3 6.2
2017-Aug-16 01:00N 49°10' W 123°56'3 5.8
2017-Aug-16 00:30N 49°11' W 123°52'3 5.7
2017-Aug-16 00:00N 49°10' W 123°56'1 2.2
2017-Aug-15 23:31N 49°10' W 123°54'1 2.8
2017-Aug-15 23:00N 49°11' W 123°52'3 5.3
2017-Aug-15 22:30N 49°10' W 123°56'3 5.7
2017-Aug-15 22:00N 49°11' W 123°52'3 5.9
2017-Aug-15 21:30N 49°10' W 123°56'1 2.2
2017-Aug-15 21:01N 49°10' W 123°54'2 3.5
2017-Aug-15 20:30N 49°11' W 123°52'3 5.5
2017-Aug-15 20:00N 49°10' W 123°56'3 5.9
2017-Aug-15 19:30N 49°11' W 123°52'3 5.6
2017-Aug-15 19:00N 49°10' W 123°56'1 2.6
2017-Aug-15 18:30N 49°10' W 123°54'1 3.0
2017-Aug-15 18:01N 49°11' W 123°52'3 5.5
2017-Aug-15 17:29N 49°10' W 123°56'3 5.8
2017-Aug-15 16:59N 49°11' W 123°52'2 4.7
2017-Aug-15 16:30N 49°10' W 123°55'0 0.4
2017-Aug-15 16:00N 49°10' W 123°55'2 4.1
2017-Aug-15 15:30N 49°11' W 123°52'3 5.9
2017-Aug-15 15:00N 49°10' W 123°56'3 4.0
2017-Aug-15 14:17N 49°11' W 123°52'2 7.9
2017-Aug-15 14:00N 49°10' W 123°55'0 0.8
2017-Aug-15 13:30N 49°10' W 123°54'2 0.5
2017-Aug-15 09:59N 49°11' W 123°52'0 0.0
2017-Aug-15 09:23N 49°11' W 123°52'0 0.0
2017-Aug-15 08:59N 49°11' W 123°52'0 0.0
2017-Aug-15 08:23N 49°11' W 123°52'0 0.0
2017-Aug-15 07:05N 49°11' W 123°52'0 0.0
2017-Aug-15 06:47N 49°11' W 123°52'0 0.0
2017-Aug-15 06:29N 49°11' W 123°52'3 6.0
2017-Aug-15 06:00N 49°10' W 123°56'3 5.6
2017-Aug-15 05:30N 49°11' W 123°52'3 5.9
2017-Aug-15 05:00N 49°10' W 123°56'3 5.8
2017-Aug-15 04:30N 49°11' W 123°52'3 5.8
2017-Aug-15 04:00N 49°10' W 123°56'3 5.4
2017-Aug-15 03:30N 49°11' W 123°52'0 0.2
2017-Aug-15 02:47N 49°11' W 123°52'1 2.2
2017-Aug-15 02:30N 49°11' W 123°53'2 4.2
2017-Aug-15 02:00N 49°10' W 123°56'3 5.1
2017-Aug-15 01:30N 49°11' W 123°52'3 5.7
2017-Aug-15 01:00N 49°10' W 123°56'3 5.7
2017-Aug-15 00:30N 49°11' W 123°52'3 5.8
2017-Aug-15 00:00N 49°10' W 123°56'2 3.1
2017-Aug-14 23:30N 49°10' W 123°53'1 1.4
2017-Aug-14 23:00N 49°11' W 123°53'2 4.5
2017-Aug-14 22:30N 49°10' W 123°56'3 5.1
2017-Aug-14 21:56N 49°11' W 123°52'2 5.1
2017-Aug-14 21:30N 49°10' W 123°55'0 0.4
2017-Aug-14 21:00N 49°10' W 123°54'2 3.8
2017-Aug-14 20:29N 49°11' W 123°52'3 6.1
2017-Aug-14 20:00N 49°10' W 123°56'3 3.9
2017-Aug-14 19:16N 49°11' W 123°52'2 8.9
2017-Aug-14 19:00N 49°10' W 123°55'0 0.7
2017-Aug-14 18:30N 49°10' W 123°54'2 3.6
2017-Aug-14 17:58N 49°11' W 123°52'3 6.2
2017-Aug-14 17:30N 49°10' W 123°56'3 4.0
2017-Aug-14 16:47N 49°11' W 123°52'2 7.7
2017-Aug-14 16:30N 49°10' W 123°55'0 0.1
2017-Aug-14 16:00N 49°10' W 123°55'2 3.9
2017-Aug-14 15:28N 49°11' W 123°52'3 6.2
2017-Aug-14 15:00N 49°10' W 123°56'3 4.9
2017-Aug-14 14:24N 49°11' W 123°52'3 6.4
2017-Aug-14 14:00N 49°10' W 123°55'0 0.3
2017-Aug-14 13:30N 49°10' W 123°55'3 3.8
2017-Aug-14 12:49N 49°11' W 123°52'0 0.0
2017-Aug-14 12:28N 49°11' W 123°52'0 0.0
2017-Aug-14 11:58N 49°11' W 123°52'0 0.0
2017-Aug-14 11:22N 49°11' W 123°52'0 0.0
2017-Aug-14 10:58N 49°11' W 123°52'0 0.0
2017-Aug-14 10:28N 49°11' W 123°52'0 0.0
2017-Aug-14 09:58N 49°11' W 123°52'0 0.0
2017-Aug-14 08:40N 49°11' W 123°52'0 0.0
2017-Aug-14 06:21N 49°11' W 123°52'3 8.4
2017-Aug-14 06:01N 49°10' W 123°56'3 5.7
2017-Aug-14 05:30N 49°11' W 123°52'3 5.9
2017-Aug-14 05:01N 49°10' W 123°56'3 5.3
2017-Aug-14 04:28N 49°11' W 123°52'3 6.4
2017-Aug-14 04:00N 49°10' W 123°56'3 5.6
2017-Aug-14 03:31N 49°11' W 123°52'0 0.2
2017-Aug-14 02:58N 49°11' W 123°52'1 1.6
2017-Aug-14 02:30N 49°11' W 123°53'2 4.3
2017-Aug-14 02:01N 49°10' W 123°56'3 5.6
2017-Aug-14 01:30N 49°11' W 123°52'3 5.3
2017-Aug-14 00:58N 49°10' W 123°56'3 6.2
2017-Aug-14 00:30N 49°11' W 123°52'3 6.0
2017-Aug-14 00:01N 49°10' W 123°56'2 4.8
2017-Aug-13 23:30N 49°11' W 123°52'0 0.1
2017-Aug-13 23:00N 49°11' W 123°52'2 4.8
2017-Aug-13 22:30N 49°10' W 123°56'3 4.2
2017-Aug-13 21:49N 49°11' W 123°52'2 6.4
2017-Aug-13 21:30N 49°10' W 123°54'0 0.3
2017-Aug-13 21:01N 49°10' W 123°55'2 4.1
2017-Aug-13 20:30N 49°11' W 123°52'3 5.7
2017-Aug-13 20:00N 49°10' W 123°56'3 5.3
2017-Aug-13 19:27N 49°11' W 123°52'3 5.8
2017-Aug-13 19:00N 49°10' W 123°55'1 2.1
2017-Aug-13 18:31N 49°10' W 123°54'1 2.6
2017-Aug-13 18:01N 49°11' W 123°52'3 5.4
2017-Aug-13 17:30N 49°10' W 123°56'3 5.7
2017-Aug-13 17:00N 49°11' W 123°52'2 5.0
2017-Aug-13 16:31N 49°10' W 123°55'1 2.4
2017-Aug-13 16:00N 49°10' W 123°53'1 1.4
2017-Aug-13 15:30N 49°11' W 123°52'2 4.7
2017-Aug-13 15:01N 49°10' W 123°56'0 0.0
2017-Aug-13 14:31N 49°10' W 123°56'0 0.0
2017-Aug-13 14:01N 49°10' W 123°56'1 1.6
2017-Aug-13 13:31N 49°10' W 123°55'2 4.1
2017-Aug-13 13:00N 49°11' W 123°52'0 0.0
2017-Aug-13 12:29N 49°11' W 123°52'0 0.0
2017-Aug-13 11:20N 49°11' W 123°52'0 0.0
2017-Aug-13 10:47N 49°11' W 123°52'0 0.0
2017-Aug-13 10:14N 49°11' W 123°52'0 0.0
2017-Aug-13 09:20N 49°11' W 123°52'0 0.0
2017-Aug-13 08:38N 49°11' W 123°52'0 0.0
2017-Aug-13 08:26N 49°11' W 123°52'0 0.0
2017-Aug-13 07:56N 49°11' W 123°52'0 0.0
2017-Aug-13 07:26N 49°11' W 123°52'0 0.0
2017-Aug-13 06:23N 49°11' W 123°52'3 7.3
2017-Aug-13 06:00N 49°10' W 123°56'3 5.1
2017-Aug-13 05:29N 49°11' W 123°52'3 5.7
2017-Aug-13 05:00N 49°10' W 123°56'3 5.2
2017-Aug-13 04:30N 49°11' W 123°52'3 5.8
2017-Aug-13 04:00N 49°10' W 123°56'2 4.9
2017-Aug-13 03:30N 49°11' W 123°52'0 0.8
2017-Aug-13 02:57N 49°11' W 123°52'0 0.8
2017-Aug-13 02:29N 49°11' W 123°52'3 5.3
2017-Aug-13 02:00N 49°10' W 123°56'3 5.4
2017-Aug-13 01:29N 49°11' W 123°52'3 6.0
2017-Aug-13 01:00N 49°10' W 123°56'3 4.2
2017-Aug-13 00:19N 49°11' W 123°52'3 9.3
2017-Aug-13 00:00N 49°10' W 123°56'1 2.4
2017-Aug-12 23:30N 49°10' W 123°54'1 2.0
2017-Aug-12 23:00N 49°11' W 123°53'2 4.5
2017-Aug-12 22:30N 49°10' W 123°56'3 5.4
2017-Aug-12 21:58N 49°11' W 123°52'2 4.5
2017-Aug-12 21:31N 49°10' W 123°55'0 0.3
2017-Aug-12 21:00N 49°10' W 123°54'2 3.6
2017-Aug-12 20:30N 49°11' W 123°52'3 5.6
2017-Aug-12 20:00N 49°10' W 123°56'3 5.6
2017-Aug-12 19:30N 49°11' W 123°52'2 4.9
2017-Aug-12 19:00N 49°10' W 123°55'1 1.3
2017-Aug-12 18:30N 49°10' W 123°54'1 2.5
2017-Aug-12 18:01N 49°11' W 123°52'2 4.8
2017-Aug-12 17:30N 49°10' W 123°56'3 4.5
2017-Aug-12 16:51N 49°11' W 123°52'2 6.7
2017-Aug-12 16:30N 49°10' W 123°55'1 1.5
2017-Aug-12 16:00N 49°10' W 123°54'1 1.9
2017-Aug-12 15:30N 49°11' W 123°53'2 4.5
2017-Aug-12 15:00N 49°10' W 123°56'3 5.8
2017-Aug-12 14:30N 49°11' W 123°52'2 4.7
2017-Aug-12 14:00N 49°10' W 123°55'0 0.9
2017-Aug-12 13:30N 49°10' W 123°56'3 0.5
2017-Aug-12 07:23N 49°11' W 123°52'0 0.0
2017-Aug-12 06:53N 49°11' W 123°52'0 0.0
2017-Aug-12 06:29N 49°11' W 123°52'3 5.7
2017-Aug-12 06:00N 49°10' W 123°56'3 5.3
2017-Aug-12 05:30N 49°11' W 123°52'3 5.3
2017-Aug-12 04:59N 49°10' W 123°56'3 4.7
2017-Aug-12 04:21N 49°11' W 123°52'3 8.3
2017-Aug-12 04:00N 49°10' W 123°56'3 5.8
2017-Aug-12 03:30N 49°11' W 123°52'0 0.0
2017-Aug-12 03:00N 49°11' W 123°52'2 3.3
2017-Aug-12 02:30N 49°10' W 123°54'0 0.6
2017-Aug-12 02:00N 49°10' W 123°54'1 2.1
2017-Aug-12 01:30N 49°11' W 123°53'2 4.0
2017-Aug-12 01:00N 49°10' W 123°56'3 4.9
2017-Aug-12 00:25N 49°11' W 123°52'3 7.1
2017-Aug-12 00:00N 49°10' W 123°56'2 3.2
2017-Aug-11 23:30N 49°11' W 123°54'1 1.9
2017-Aug-11 23:00N 49°11' W 123°52'3 4.1
2017-Aug-11 22:23N 49°10' W 123°56'3 6.9
2017-Aug-11 21:57N 49°11' W 123°52'2 5.0
2017-Aug-11 21:30N 49°10' W 123°55'0 0.5
2017-Aug-11 21:01N 49°10' W 123°54'2 3.7
2017-Aug-11 20:29N 49°11' W 123°52'3 4.8
2017-Aug-11 19:54N 49°10' W 123°56'3 5.0
2017-Aug-11 19:19N 49°11' W 123°52'2 7.5
2017-Aug-11 19:00N 49°10' W 123°55'1 1.2
2017-Aug-11 18:30N 49°10' W 123°54'2 3.4
2017-Aug-11 18:00N 49°11' W 123°52'3 5.7
2017-Aug-11 17:30N 49°10' W 123°56'3 4.9
2017-Aug-11 16:55N 49°11' W 123°52'2 5.4
2017-Aug-11 16:30N 49°10' W 123°55'0 0.7
2017-Aug-11 16:00N 49°10' W 123°54'2 3.7
2017-Aug-11 15:30N 49°11' W 123°52'3 5.8
2017-Aug-11 15:00N 49°10' W 123°56'0 0.4
2017-Aug-11 14:00N 49°10' W 123°55'1 1.5
2017-Aug-11 13:30N 49°10' W 123°54'2 0.3
2017-Aug-11 06:43N 49°11' W 123°52'0 0.0
2017-Aug-11 06:28N 49°11' W 123°52'3 5.9
2017-Aug-11 06:00N 49°10' W 123°56'3 5.0
2017-Aug-11 05:29N 49°11' W 123°52'3 5.4
2017-Aug-11 05:00N 49°10' W 123°56'2 4.9
2017-Aug-11 04:30N 49°11' W 123°52'3 5.1
2017-Aug-11 04:01N 49°10' W 123°56'2 4.0
2017-Aug-11 03:30N 49°11' W 123°53'1 1.3
2017-Aug-11 02:55N 49°11' W 123°52'2 5.3
2017-Aug-11 02:30N 49°10' W 123°55'2 3.4
2017-Aug-11 02:00N 49°11' W 123°52'2 3.7
2017-Aug-11 01:31N 49°10' W 123°55'0 0.1
2017-Aug-11 01:00N 49°10' W 123°55'2 4.1
2017-Aug-11 00:30N 49°11' W 123°52'3 5.6
2017-Aug-11 00:00N 49°10' W 123°56'3 4.1
2017-Aug-10 23:18N 49°11' W 123°52'3 8.6
2017-Aug-10 23:00N 49°10' W 123°55'0 0.7
2017-Aug-10 22:30N 49°10' W 123°55'2 4.4
2017-Aug-10 22:00N 49°11' W 123°52'3 5.8
2017-Aug-10 21:30N 49°10' W 123°56'3 5.7
2017-Aug-10 21:00N 49°11' W 123°52'2 3.4
2017-Aug-10 20:30N 49°10' W 123°54'1 2.4
2017-Aug-10 20:00N 49°10' W 123°56'3 5.7
2017-Aug-10 19:30N 49°11' W 123°52'3 5.9
2017-Aug-10 19:00N 49°10' W 123°56'1 2.2
2017-Aug-10 18:30N 49°10' W 123°54'2 3.4
2017-Aug-10 18:00N 49°11' W 123°52'3 5.8
2017-Aug-10 17:30N 49°10' W 123°56'3 5.8
2017-Aug-10 17:00N 49°11' W 123°52'2 4.0
2017-Aug-10 16:31N 49°10' W 123°54'0 0.1
2017-Aug-10 16:00N 49°10' W 123°54'2 3.7
2017-Aug-10 15:30N 49°11' W 123°52'3 5.8
2017-Aug-10 15:00N 49°10' W 123°56'3 5.8
2017-Aug-10 14:30N 49°11' W 123°52'3 5.3
2017-Aug-10 14:01N 49°10' W 123°55'1 1.7
2017-Aug-10 13:30N 49°10' W 123°54'2 3.6
2017-Aug-10 13:00N 49°11' W 123°52'0 0.0
2017-Aug-10 12:30N 49°11' W 123°52'0 0.0
2017-Aug-10 12:00N 49°11' W 123°52'0 0.0
2017-Aug-10 11:30N 49°11' W 123°52'0 0.0
2017-Aug-10 11:00N 49°11' W 123°52'0 0.0
2017-Aug-10 10:30N 49°11' W 123°52'0 0.0
2017-Aug-10 10:00N 49°11' W 123°52'0 0.0
2017-Aug-10 09:30N 49°11' W 123°52'0 0.0
2017-Aug-10 09:00N 49°11' W 123°52'0 0.0
2017-Aug-10 08:30N 49°11' W 123°52'0 0.0
2017-Aug-10 08:00N 49°11' W 123°52'0 0.0
2017-Aug-10 07:30N 49°11' W 123°52'0 0.0
2017-Aug-10 07:00N 49°11' W 123°52'0 0.0
2017-Aug-10 06:30N 49°11' W 123°52'3 5.9
2017-Aug-10 06:00N 49°10' W 123°56'0 0.0
2017-Aug-10 05:30N 49°10' W 123°56'0 0.0
2017-Aug-10 05:00N 49°10' W 123°56'3 5.8
2017-Aug-10 04:30N 49°11' W 123°52'3 5.9
2017-Aug-10 04:01N 49°10' W 123°56'2 4.0
2017-Aug-10 03:30N 49°11' W 123°53'0 0.4
2017-Aug-10 03:00N 49°11' W 123°53'2 3.8
2017-Aug-10 02:30N 49°10' W 123°55'2 4.9
2017-Aug-10 02:00N 49°11' W 123°52'3 5.6
2017-Aug-10 01:31N 49°10' W 123°56'3 5.8
2017-Aug-10 01:00N 49°11' W 123°52'2 1.1
2017-Aug-09 23:28N 49°10' W 123°54'1 0.4
2017-Aug-09 22:02N 49°10' W 123°55'1 1.9
2017-Aug-09 21:43N 49°10' W 123°56'1 2.8
2017-Aug-09 21:27N 49°10' W 123°55'0 0.3
2017-Aug-09 20:04N 49°10' W 123°55'0 8.7
2017-Aug-09 20:00N 49°10' W 123°55'1 1.7
2017-Aug-09 19:19N 49°11' W 123°53'  

Dump ship's entire track history